»·PEaware :: UAL581 KLAS-KLAX

UAL581 :: KLAS-KLAX

FLIGHT INFORMATION

Flight Status: Arrived
Operator:
United Airlines
More flights by this operator :: More flights under this callsign
Pilot: Pietro M. (286)
Aircraft: CANADAIR CL-600 CRJ-100
(CRJ1)
More flights by this aircraft type
Origin: KLAS McCarran Intl
United States
Destination: KLAX Los Angeles Intl
United States
More flights between these airports :: More routes between these airports
Route: +MCCRN3 HEC RIIVR2
File this flight plan on PilotEdge
Remarks:
Altitude:
(Current/Filed)
22,000ft
Speed:
(Current/Filed)
350kts
Departed: 23-Jun-11 12:26 PM
Arrived: 23-Jun-11 01:15 PM
Distance/Time
Traveled:
205nm/0:49
Distance/Time
To Go:
Arrived

Flight Plot

Page will automatically refresh every two minutes.


Map Options




Map Legend


Flown Route
Filed Route
Departure Airport
Arrival Airport
Navaid (VOR, NDB)
Fix

Horizontal Profiles

Position Reports

Time Latitude Longitude Heading Altitude Ground
Speed
23-Jun-11 12:14 36.085786 -115.154589 154 2145ft 0kts
23-Jun-11 12:15 36.085786 -115.154589 154 2145ft 0kts
23-Jun-11 12:16 36.085786 -115.154589 154 2145ft 0kts
23-Jun-11 12:17 36.085786 -115.154589 154 2145ft 0kts
23-Jun-11 12:18 36.085786 -115.154589 154 2145ft 0kts
23-Jun-11 12:19 36.085786 -115.154589 154 2145ft 0kts
23-Jun-11 12:20 36.085836 -115.154618 155 2145ft 4kts
23-Jun-11 12:21 36.086473 -115.155608 60 2145ft 0kts
23-Jun-11 12:22 36.087180 -115.155135 13 2145ft 20kts
23-Jun-11 12:23 36.093712 -115.154167 24 2145ft 21kts
23-Jun-11 12:24 36.098075 -115.152534 298 2145ft 0kts
23-Jun-11 12:25 36.089332 -115.159065 206 2158ft 158kts
23-Jun-11 12:26 36.032619 -115.192550 195 4162ft 262kts
23-Jun-11 12:27 35.961291 -115.211853 193 6157ft 268kts
23-Jun-11 12:29 35.828684 -115.241867 193 9823ft 263kts
23-Jun-11 12:30 35.757724 -115.261134 215 11818ft 261kts
23-Jun-11 12:31 35.699047 -115.322885 220 13915ft 322kts
23-Jun-11 12:32 35.632013 -115.399978 222 15920ft 334kts
23-Jun-11 12:33 35.565254 -115.480889 222 17898ft 343kts
23-Jun-11 12:34 35.497533 -115.565497 223 19871ft 353kts
23-Jun-11 12:35 35.428905 -115.652858 223 21789ft 362kts
23-Jun-11 12:36 35.362021 -115.738989 223 21908ft 362kts
23-Jun-11 12:37 35.294115 -115.826893 225 21946ft 356kts
23-Jun-11 12:38 35.222722 -115.919096 229 21945ft 387kts
23-Jun-11 12:39 35.148615 -116.014577 230 21941ft 391kts
23-Jun-11 12:40 35.073616 -116.110885 231 21939ft 394kts
23-Jun-11 12:41 34.997675 -116.208091 232 21937ft 397kts
23-Jun-11 12:42 34.934310 -116.288971 232 21937ft 398kts
23-Jun-11 12:43 34.872941 -116.367116 232 21936ft 399kts
23-Jun-11 12:44 34.815919 -116.439622 231 21905ft 393kts
23-Jun-11 12:45 34.745942 -116.512072 223 21903ft 394kts
23-Jun-11 12:46 34.688592 -116.565941 222 21106ft 371kts
23-Jun-11 12:47 34.632578 -116.618188 222 19969ft 333kts
23-Jun-11 12:48 34.575927 -116.671443 222 18940ft 308kts
23-Jun-11 12:49 34.517642 -116.726224 222 18912ft 311kts
23-Jun-11 12:50 34.459261 -116.780956 222 18911ft 310kts
23-Jun-11 12:51 34.402459 -116.834116 222 18910ft 310kts
23-Jun-11 12:52 34.344839 -116.887932 222 18954ft 316kts
23-Jun-11 12:53 34.277459 -116.950893 222 18973ft 352kts
23-Jun-11 12:54 34.201373 -117.021729 220 18974ft 361kts
23-Jun-11 12:55 34.122905 -117.094497 218 18975ft 360kts
23-Jun-11 12:56 34.071214 -117.191620 242 16636ft 346kts
23-Jun-11 12:57 34.043273 -117.296698 264 14484ft 321kts
23-Jun-11 12:58 34.033985 -117.400229 264 12686ft 302kts
23-Jun-11 12:59 34.025151 -117.498909 264 11980ft 302kts
23-Jun-11 13:00 34.016239 -117.594773 264 11975ft 300kts
23-Jun-11 13:01 34.006617 -117.693517 262 11054ft 291kts
23-Jun-11 13:02 33.997266 -117.789215 262 9577ft 280kts
23-Jun-11 13:03 33.988707 -117.876045 262 8285ft 241kts
23-Jun-11 13:04 33.981999 -117.943105 263 7173ft 232kts
23-Jun-11 13:05 33.976021 -118.003116 264 6197ft 221kts
23-Jun-11 13:07 33.964212 -118.121566 264 4390ft 189kts
23-Jun-11 13:08 33.959696 -118.166508 263 3637ft 180kts
23-Jun-11 13:09 33.954197 -118.220857 262 2700ft 127kts
23-Jun-11 13:10 33.949797 -118.263725 262 2063ft 131kts
23-Jun-11 13:11 33.945810 -118.302378 262 1459ft 129kts
23-Jun-11 13:12 33.941739 -118.344705 261 833ft 130kts
23-Jun-11 13:13 33.937138 -118.385945 261 140ft 109kts
23-Jun-11 13:14 33.936637 -118.399786 288 130ft 17kts
23-Jun-11 13:15 33.938129 -118.406248 284 130ft 20kts
23-Jun-11 13:16 33.939801 -118.409149 278 130ft 0kts

Navigation Log

Ident Type
Flight plan parsing failed, navigation log unavailable